• Join FlightAware (Why Join?)
  • Login
  • US Flag 
12:22AM EDT


 

Airport Tracker/Info


-or-


 

Live Flight TrackerFlight Track Log ✈ AAY894 ✈ 08-Mar-2014 ✈ KPIE - KIAG

Flight Track Log - Related Links

Times and Time Zones

All times are in EST time to prevent confusion due to time zone crossing. See the AAY894 flight status page for this flight to view local times or setup timezone preferences in your user account.

Time Position Orientation Groundspeed Altitude Reporting Facility
EST Latitude Longitude Course Direction KTS MPH feet Rate Location/Type
07:07AM 27.9333 -82.7000 41° Northeast 162 186 900  Level Tampa TRACON
07:07AM 27.9500 -82.6833 41° Northeast 155 178 2,200 1,920 Climbing Tampa TRACON
07:10AM 28.0725 -82.6644 North 194 223 6,100 2,160 Climbing Jacksonville Center
07:11AM 28.1497 -82.6667 359° North 237 273 9,100 2,400 Climbing Jacksonville Center
07:12AM 28.2311 -82.6758 354° North 268 308 10,900 1,500 Climbing Jacksonville Center
07:13AM 28.3250 -82.6875 354° North 308 354 12,200 1,740 Climbing Jacksonville Center
07:14AM 28.4314 -82.7014 353° North 355 409 14,400 2,100 Climbing Jacksonville Center
07:15AM 28.5464 -82.7131 355° North 387 445 16,400 2,100 Climbing Jacksonville Center
07:16AM 28.6631 -82.7269 354° North 407 468 18,700 2,040 Climbing Jacksonville Center
07:17AM 28.7656 -82.7364 355° North 407 468 20,500 1,740 Climbing Jacksonville Center
07:18AM 28.8844 -82.7478 355° North 413 475 22,200 1,620 Climbing Jacksonville Center
07:19AM 29.0075 -82.7525 358° North 425 489 23,800 1,440 Climbing Jacksonville Center
07:20AM 29.1308 -82.7594 357° North 431 496 25,100 1,620 Climbing Jacksonville Center
07:21AM 29.2561 -82.7617 359° North 443 510 27,100 1,620 Climbing Jacksonville Center
07:22AM 29.3814 -82.7592 North 443 510 28,400 1,380 Climbing Jacksonville Center
07:23AM 29.5192 -82.7614 359° North 446 513 29,900 1,200 Climbing Jacksonville Center
07:24AM 29.6422 -82.7589 North 442 509 30,900 540 Climbing Jacksonville Center
07:25AM 29.7675 -82.7586 360° North 442 509 31,000  Climbing Jacksonville Center
07:26AM 29.8928 -82.7561 North 442 509 31,000 -60 Level Jacksonville Center
07:27AM 30.0139 -82.7583 359° North 442 509 30,900 -60 Descending Jacksonville Center
07:28AM 30.1244 -82.7556 North 442 509 30,900  Level Jacksonville Center
07:29AM 30.2644 -82.7531 North 442 509 30,900  Level Jacksonville Center
07:30AM 30.3875 -82.7528 360° North 442 509 31,000  Climbing Jacksonville Center
07:31AM 30.5108 -82.7528 360° North 437 503 30,900  Descending Jacksonville Center
07:32AM 30.6339 -82.7550 359° North 437 503 31,000  Climbing Jacksonville Center
07:33AM 30.7550 -82.7378 North 437 503 31,000  Level Jacksonville Center
07:34AM 30.8781 -82.7039 13° North 443 510 31,000 -60 Level Jacksonville Center
07:35AM 31.0033 -82.6672 14° North 448 516 30,900 -60 Descending Jacksonville Center
07:36AM 31.1264 -82.6328 13° North 453 521 30,900  Level Jacksonville Center
07:37AM 31.2497 -82.5961 14° North 453 521 31,000  Climbing Jacksonville Center
07:38AM 31.3603 -82.5667 13° North 448 516 31,000  Level Jacksonville Center
07:39AM 31.4853 -82.5247 16° North 454 522 31,000  Level Jacksonville Center
07:41AM 31.7514 -82.4783 North 461 531 31,000  Level Atlanta Center
07:42AM 31.8742 -82.4567 North 461 531 31,000  Level Atlanta Center
07:43AM 31.9950 -82.4397 North 442 509 31,000  Level Atlanta Center
07:44AM 32.1158 -82.4181 North 442 509 31,000  Level Atlanta Center
07:45AM 32.2367 -82.4011 North 442 509 31,000  Level Atlanta Center
07:46AM 32.3428 -82.3794 10° North 436 502 31,000  Level Atlanta Center
07:47AM 32.4678 -82.3647 North 436 502 31,000  Level Atlanta Center
07:48AM 32.5928 -82.3425 North 446 513 31,000  Level Atlanta Center
07:49AM 32.7156 -82.3231 North 446 513 31,000  Level Atlanta Center
07:50AM 32.8386 -82.3033 North 446 513 31,000  Level Atlanta Center
07:51AM 32.9569 -82.2689 14° North 446 513 31,000 540 Level Atlanta Center
07:52AM 33.0775 -82.2217 18° North 446 513 32,100 960 Climbing Atlanta Center
07:53AM 33.1981 -82.1967 10° North 446 513 33,000 420 Climbing Atlanta Center
07:54AM 33.3189 -82.1719 10° North 446 513 33,000  Level Atlanta Center
07:55AM 33.4372 -82.1444 11° North 441 507 33,000  Level Atlanta Center
07:56AM 33.5600 -82.1167 11° North 441 507 33,000  Level Atlanta Center
07:57AM 33.6828 -82.0892 11° North 441 507 33,000  Level Atlanta Center
07:58AM 33.8158 -82.0586 11° North 449 517 33,000  Level Atlanta Center
07:59AM 33.9386 -82.0306 11° North 444 511 33,000  Level Atlanta Center
08:00AM 34.0592 -82.0053 10° North 444 511 33,000  Level Atlanta Center
08:01AM 34.1778 -81.9772 11° North 444 511 33,000  Level Atlanta Center
08:02AM 34.2961 -81.9517 10° North 439 505 33,000  Level Atlanta Center
08:03AM 34.4147 -81.9261 10° North 439 505 33,000  Level Atlanta Center
08:04AM 34.5333 -81.9006 10° North 434 499 33,000  Level Atlanta Center
08:05AM 34.6558 -81.8747 10° North 428 493 33,000  Level Atlanta Center
08:06AM 34.7722 -81.8439 12° North 428 493 33,000  Level Atlanta Center
08:07AM 34.8928 -81.8178 10° North 428 493 33,000  Level Atlanta Center
08:08AM 35.0156 -81.7944 North 428 493 33,000  Level Atlanta Center
08:09AM 35.1358 -81.7631 12° North 428 493 33,000  Level Atlanta Center
08:10AM 35.2522 -81.7344 11° North 428 493 33,000  Level Atlanta Center
08:11AM 35.3728 -81.7083 10° North 428 493 33,000  Level Atlanta Center
08:12AM 35.4933 -81.6792 11° North 428 493 33,000  Level Atlanta Center
08:13AM 35.6136 -81.6503 11° North 428 493 33,000  Level Atlanta Center
08:14AM 35.7342 -81.6211 11° North 433 498 33,000  Level Atlanta Center
08:15AM 35.8567 -81.5944 10° North 433 498 33,000  Level Atlanta Center
08:16AM 35.9625 -81.5683 11° North 433 498 33,000  Level Atlanta Center
08:17AM 36.0850 -81.5389 11° North 433 498 33,000  Level Atlanta Center
08:18AM 36.2033 -81.5119 10° North 433 498 33,000  Level Atlanta Center
08:20AM 36.4653 -81.4450 12° North 440 506 33,000  Level Indianapolis Center
08:21AM 36.5828 -81.4172 11° North 436 502 33,000  Level Indianapolis Center
08:22AM 36.7025 -81.3881 11° North 440 506 33,000  Level Indianapolis Center
08:23AM 36.8467 -81.3533 11° North 445 512 33,000  Level Indianapolis Center
08:24AM 36.9669 -81.3233 11° North 448 516 33,000  Level Indianapolis Center
08:25AM 37.0928 -81.2933 11° North 448 516 33,000  Level Indianapolis Center
08:26AM 37.2131 -81.2636 11° North 444 511 33,000  Level Indianapolis Center
08:27AM 37.3197 -81.2381 11° North 444 511 33,000  Level Indianapolis Center
08:28AM 37.4617 -81.2028 11° North 443 510 33,000  Level Indianapolis Center
08:29AM 37.5828 -81.1733 11° North 446 513 33,000  Level Indianapolis Center
08:30AM 37.7019 -81.1444 11° North 446 513 33,000  Level Indianapolis Center
08:31AM 37.8281 -81.1103 12° North 445 512 33,000  Level Indianapolis Center
08:32AM 37.9469 -81.0767 13° North 444 511 33,000  Level Indianapolis Center
08:33AM 38.0683 -81.0386 14° North 444 511 33,000  Level Indianapolis Center
08:34AM 38.1856 -80.9922 17° North 444 511 33,000  Level Indianapolis Center
08:35AM 38.3042 -80.9456 17° North 444 511 33,000  Level Indianapolis Center
08:36AM 38.4469 -80.8908 17° North 445 512 33,000  Level Indianapolis Center
08:37AM 38.5661 -80.8439 17° North 445 512 33,000  Level Indianapolis Center
08:38AM 38.6847 -80.7969 17° North 447 514 33,000  Level Indianapolis Center
08:39AM 38.8047 -80.7500 17° North 448 516 33,000  Level Indianapolis Center
08:40AM 38.9242 -80.7025 17° North 449 517 33,000  Level Indianapolis Center
08:41AM 39.0444 -80.6556 17° North 449 517 33,000  Level Indianapolis Center
08:42AM 39.1653 -80.6078 17° North 450 518 33,000  Level Indianapolis Center
08:43AM 39.2867 -80.5589 17° North 454 522 33,000  Level Indianapolis Center
08:44AM 39.4311 -80.5017 17° North 454 522 33,000  Level Indianapolis Center
08:45AM 39.5519 -80.4556 16° North 454 522 33,000  Level Indianapolis Center
08:46AM 39.6267 -80.4261 17° North 448 516 33,000  Level Cleveland Center
08:47AM 39.7461 -80.3794 17° North 447 514 33,000  Level Cleveland Center
08:48AM 39.8650 -80.3306 18° North 448 516 33,000  Level Cleveland Center
08:49AM 39.9842 -80.2822 17° North 449 517 33,000  Level Cleveland Center
08:50AM 40.1036 -80.2333 17° North 449 517 33,000  Level Cleveland Center
08:51AM 40.2236 -80.1839 17° North 450 518 33,000  Level Cleveland Center
08:52AM 40.3600 -80.1261 18° North 451 519 33,000  Level Cleveland Center
08:53AM 40.4811 -80.0772 17° North 452 520 33,000  Level Cleveland Center
08:54AM 40.6008 -80.0275 18° North 453 521 33,000  Level Cleveland Center
08:55AM 40.7183 -79.9792 17° North 453 521 33,000 -420 Level Cleveland Center
08:56AM 40.8403 -79.9539 North 450 518 32,200 -1,080 Descending Cleveland Center
08:57AM 40.9828 -79.9364 North 437 503 30,800 -1,620 Descending Cleveland Center
08:58AM 41.1047 -79.8842 18° North 459 528 29,000 -1,920 Descending Cleveland Center
08:59AM 41.2278 -79.8283 19° North 461 531 27,000 -2,340 Descending Cleveland Center
09:00AM 41.3475 -79.7722 19° North 441 507 24,300 -1,500 Descending Cleveland Center
09:01AM 41.4569 -79.7233 19° North 439 505 24,000 -180 Descending Cleveland Center
09:02AM 41.5717 -79.6711 19° North 437 503 24,000 -540 Level Cleveland Center
09:03AM 41.6853 -79.6181 19° North 436 502 23,000 -1,620 Descending Cleveland Center
09:05AM 41.7961 -79.5675 19° North 427 491 20,800 -2,100 Descending Cleveland Center
09:06AM 41.9008 -79.5194 19° North 404 465 18,800 -2,220 Descending Cleveland Center
09:07AM 42.0211 -79.4628 19° North 383 441 16,300 -2,280 Descending Cleveland Center
09:08AM 42.1169 -79.4169 20° North 367 422 14,200 -2,100 Descending Cleveland Center
09:09AM 42.2092 -79.3747 19° North 354 407 12,100 -1,620 Descending Cleveland Center
09:10AM 42.2992 -79.3339 19° North 343 395 11,000 -540 Descending Cleveland Center
09:11AM 42.3894 -79.2922 19° North 343 395 11,000 -120 Level Cleveland Center
09:12AM 42.4911 -79.2458 19° North 342 394 10,800 -540 Descending Cleveland Center
09:13AM 42.5694 -79.2078 20° North 301 346 9,900 -1,200 Descending Cleveland Center
09:14AM 42.6436 -79.1714 20° North 276 318 8,400 -1,380 Descending Cleveland Center
09:15AM 42.7103 -79.1397 19° North 268 308 7,100 -1,320 Descending Cleveland Center
09:16AM 42.7728 -79.0892 31° Northeast 265 305 5,700 -1,080 Descending Cleveland Center
09:17AM 42.8289 -79.0231 41° Northeast 261 300 5,000 -360 Descending Cleveland Center
09:18AM 42.8794 -78.9628 41° Northeast 240 276 5,000 -240 Level Cleveland Center
09:19AM 42.9253 -78.9039 43° Northeast 239 275 4,600 -600 Descending Cleveland Center
09:20AM 42.9667 -78.8667 33° Northeast 216 249 4,000 -360 Descending Buffalo TRACON
09:21AM 43.0000 -78.8000 56° Northeast 206 237 4,000 -300 Level Buffalo TRACON
09:22AM 43.0333 -78.7500 48° Northeast 189 217 3,400 -840 Descending Buffalo TRACON
09:23AM 43.0833 -78.7333 14° North 192 221 2,400 -600 Descending Buffalo TRACON
09:23AM 43.1000 -78.7833 295° West 162 186 2,300 -420 Descending Buffalo TRACON
09:25AM 43.1167 -78.8500 289° West 162 186 1,600 -660 Descending Buffalo TRACON
09:26AM 43.1167 -78.9167 270° West 121 139 900 -660 Descending Buffalo TRACON